sensor_id;sensor_type;location;lat;lon;timestamp;pressure;altitude;pressure_sealevel;temperature;humidity
1616;BME280;801;47.982;7.810;2023-08-08T00:01:41;98872.22;;;15.24;100.00
1616;BME280;801;47.982;7.810;2023-08-08T00:04:11;98862.00;;;15.15;100.00
1616;BME280;801;47.982;7.810;2023-08-08T00:10:23;98865.00;;;15.14;100.00
1616;BME280;801;47.982;7.810;2023-08-08T00:13:12;98870.81;;;14.97;100.00
1616;BME280;801;47.982;7.810;2023-08-08T00:15:54;98867.03;;;14.98;100.00
1616;BME280;801;47.982;7.810;2023-08-08T00:18:31;98882.19;;;14.99;100.00
1616;BME280;801;47.982;7.810;2023-08-08T00:21:15;98873.00;;;14.95;100.00
1616;BME280;801;47.982;7.810;2023-08-08T00:23:48;98865.81;;;14.80;100.00
1616;BME280;801;47.982;7.810;2023-08-08T00:26:24;98864.44;;;14.83;100.00
1616;BME280;801;47.982;7.810;2023-08-08T00:29:03;98866.56;;;14.86;100.00
1616;BME280;801;47.982;7.810;2023-08-08T00:31:36;98870.41;;;14.80;100.00
1616;BME280;801;47.982;7.810;2023-08-08T00:34:05;98867.72;;;14.74;100.00
1616;BME280;801;47.982;7.810;2023-08-08T00:36:37;98857.44;;;14.77;100.00
1616;BME280;801;47.982;7.810;2023-08-08T00:39:06;98860.16;;;14.77;100.00
1616;BME280;801;47.982;7.810;2023-08-08T00:42:18;98857.50;;;14.66;100.00
1616;BME280;801;47.982;7.810;2023-08-08T00:45:54;98848.84;;;14.64;100.00
1616;BME280;801;47.982;7.810;2023-08-08T00:51:43;98855.41;;;14.58;100.00
1616;BME280;801;47.982;7.810;2023-08-08T00:54:13;98852.69;;;14.58;100.00
1616;BME280;801;47.982;7.810;2023-08-08T01:00:07;98843.53;;;14.49;100.00
1616;BME280;801;47.982;7.810;2023-08-08T01:02:50;98840.00;;;14.48;100.00
1616;BME280;801;47.982;7.810;2023-08-08T01:05:25;98843.53;;;14.44;100.00
1616;BME280;801;47.982;7.810;2023-08-08T01:08:07;98842.78;;;14.38;100.00
1616;BME280;801;47.982;7.810;2023-08-08T01:10:52;98850.09;;;14.32;100.00
1616;BME280;801;47.982;7.810;2023-08-08T01:13:50;98845.00;;;14.26;100.00
1616;BME280;801;47.982;7.810;2023-08-08T01:36:25;98834.22;;;14.21;100.00
1616;BME280;801;47.982;7.810;2023-08-08T01:39:22;98838.81;;;14.20;100.00
1616;BME280;801;47.982;7.810;2023-08-08T01:42:19;98843.72;;;14.08;100.00
1616;BME280;801;47.982;7.810;2023-08-08T01:45:25;98838.59;;;14.06;100.00
1616;BME280;801;47.982;7.810;2023-08-08T01:48:20;98837.53;;;14.07;100.00
1616;BME280;801;47.982;7.810;2023-08-08T01:54:14;98829.72;;;14.01;100.00
1616;BME280;801;47.982;7.810;2023-08-08T01:57:09;98825.38;;;14.00;100.00
1616;BME280;801;47.982;7.810;2023-08-08T01:59:53;98825.44;;;13.89;100.00
1616;BME280;801;47.982;7.810;2023-08-08T02:05:09;98831.06;;;13.93;100.00
1616;BME280;801;47.982;7.810;2023-08-08T02:07:50;98823.28;;;13.91;100.00
1616;BME280;801;47.982;7.810;2023-08-08T02:10:18;98821.63;;;13.90;100.00
1616;BME280;801;47.982;7.810;2023-08-08T02:12:59;98822.22;;;13.82;100.00
1616;BME280;801;47.982;7.810;2023-08-08T02:15:33;98825.47;;;13.79;100.00
1616;BME280;801;47.982;7.810;2023-08-08T02:18:05;98822.53;;;13.76;100.00
1616;BME280;801;47.982;7.810;2023-08-08T02:20:34;98827.63;;;13.77;100.00
1616;BME280;801;47.982;7.810;2023-08-08T02:23:01;98824.13;;;13.77;100.00
1616;BME280;801;47.982;7.810;2023-08-08T02:25:29;98824.66;;;13.79;100.00
1616;BME280;801;47.982;7.810;2023-08-08T02:27:56;98827.91;;;13.70;100.00
1616;BME280;801;47.982;7.810;2023-08-08T02:30:24;98829.78;;;13.75;100.00
1616;BME280;801;47.982;7.810;2023-08-08T02:32:53;98835.75;;;13.72;100.00
1616;BME280;801;47.982;7.810;2023-08-08T02:35:20;98836.59;;;13.67;100.00
1616;BME280;801;47.982;7.810;2023-08-08T02:37:53;98837.41;;;13.63;100.00
1616;BME280;801;47.982;7.810;2023-08-08T02:40:53;98846.06;;;13.55;100.00
1616;BME280;801;47.982;7.810;2023-08-08T02:43:31;98836.59;;;13.57;100.00
1616;BME280;801;47.982;7.810;2023-08-08T02:54:02;98840.41;;;13.56;100.00
1616;BME280;801;47.982;7.810;2023-08-08T02:56:46;98837.16;;;13.54;100.00
1616;BME280;801;47.982;7.810;2023-08-08T02:59:14;98822.28;;;13.57;100.00
1616;BME280;801;47.982;7.810;2023-08-08T03:02:17;98826.34;;;13.59;100.00
1616;BME280;801;47.982;7.810;2023-08-08T03:05:01;98825.53;;;13.59;100.00
1616;BME280;801;47.982;7.810;2023-08-08T03:07:46;98824.47;;;13.55;100.00
1616;BME280;801;47.982;7.810;2023-08-08T03:10:30;98821.75;;;13.55;100.00
1616;BME280;801;47.982;7.810;2023-08-08T03:16:48;98816.94;;;13.41;100.00
1616;BME280;801;47.982;7.810;2023-08-08T03:19:20;98817.75;;;13.47;100.00
1616;BME280;801;47.982;7.810;2023-08-08T03:21:47;98814.53;;;13.40;100.00
1616;BME280;801;47.982;7.810;2023-08-08T03:24:15;98819.91;;;13.35;100.00
1616;BME280;801;47.982;7.810;2023-08-08T03:26:42;98812.09;;;13.28;100.00
1616;BME280;801;47.982;7.810;2023-08-08T03:29:09;98816.13;;;13.31;100.00
1616;BME280;801;47.982;7.810;2023-08-08T03:31:38;98819.91;;;13.24;100.00
1616;BME280;801;47.982;7.810;2023-08-08T03:34:06;98826.66;;;13.22;100.00
1616;BME280;801;47.982;7.810;2023-08-08T03:36:33;98825.03;;;13.21;100.00
1616;BME280;801;47.982;7.810;2023-08-08T03:39:00;98822.31;;;13.26;100.00
1616;BME280;801;47.982;7.810;2023-08-08T03:41:28;98826.91;;;13.25;100.00
1616;BME280;801;47.982;7.810;2023-08-08T03:43:55;98832.03;;;13.27;100.00
1616;BME280;801;47.982;7.810;2023-08-08T03:46:22;98832.63;;;13.29;100.00
1616;BME280;801;47.982;7.810;2023-08-08T03:48:49;98830.16;;;13.27;100.00
1616;BME280;801;47.982;7.810;2023-08-08T03:51:20;98830.69;;;13.14;100.00
1616;BME280;801;47.982;7.810;2023-08-08T03:53:50;98832.06;;;13.06;100.00
1616;BME280;801;47.982;7.810;2023-08-08T03:56:19;98829.34;;;13.12;100.00
1616;BME280;801;47.982;7.810;2023-08-08T03:58:49;98829.09;;;13.18;100.00
1616;BME280;801;47.982;7.810;2023-08-08T04:01:16;98821.81;;;13.14;100.00
1616;BME280;801;47.982;7.810;2023-08-08T04:03:42;98828.25;;;13.13;100.00
1616;BME280;801;47.982;7.810;2023-08-08T04:06:09;98832.03;;;13.17;100.00
1616;BME280;801;47.982;7.810;2023-08-08T04:08:38;98827.19;;;13.19;100.00
1616;BME280;801;47.982;7.810;2023-08-08T04:11:04;98830.19;;;13.17;100.00
1616;BME280;801;47.982;7.810;2023-08-08T04:13:31;98835.56;;;13.17;100.00
1616;BME280;801;47.982;7.810;2023-08-08T04:16:00;98839.59;;;13.09;100.00
1616;BME280;801;47.982;7.810;2023-08-08T04:18:27;98837.72;;;13.05;100.00
1616;BME280;801;47.982;7.810;2023-08-08T04:20:56;98836.63;;;13.06;100.00
1616;BME280;801;47.982;7.810;2023-08-08T04:23:24;98843.66;;;13.12;100.00
1616;BME280;801;47.982;7.810;2023-08-08T04:25:55;98841.50;;;13.09;100.00
1616;BME280;801;47.982;7.810;2023-08-08T04:28:22;98834.22;;;13.09;100.00
1616;BME280;801;47.982;7.810;2023-08-08T04:30:49;98841.25;;;13.11;100.00
1616;BME280;801;47.982;7.810;2023-08-08T04:33:16;98843.94;;;13.16;100.00
1616;BME280;801;47.982;7.810;2023-08-08T04:35:45;98847.16;;;13.07;100.00
1616;BME280;801;47.982;7.810;2023-08-08T04:38:13;98842.84;;;12.96;100.00
1616;BME280;801;47.982;7.810;2023-08-08T04:40:40;98840.97;;;12.86;100.00
1616;BME280;801;47.982;7.810;2023-08-08T04:43:12;98840.41;;;12.90;100.00
1616;BME280;801;47.982;7.810;2023-08-08T04:45:39;98834.22;;;12.89;100.00
1616;BME280;801;47.982;7.810;2023-08-08T04:48:08;98829.09;;;12.87;100.00
1616;BME280;801;47.982;7.810;2023-08-08T04:50:35;98838.53;;;12.90;100.00
1616;BME280;801;47.982;7.810;2023-08-08T04:53:03;98845.28;;;12.82;100.00
1616;BME280;801;47.982;7.810;2023-08-08T04:55:30;98846.34;;;12.92;100.00
1616;BME280;801;47.982;7.810;2023-08-08T04:57:56;98837.97;;;12.88;100.00
1616;BME280;801;47.982;7.810;2023-08-08T05:00:26;98850.69;;;12.93;100.00
1616;BME280;801;47.982;7.810;2023-08-08T05:02:53;98849.88;;;12.87;100.00
1616;BME280;801;47.982;7.810;2023-08-08T05:05:20;98855.81;;;12.89;100.00
1616;BME280;801;47.982;7.810;2023-08-08T05:07:47;98850.41;;;12.94;100.00
1616;BME280;801;47.982;7.810;2023-08-08T05:10:13;98854.19;;;12.98;100.00
1616;BME280;801;47.982;7.810;2023-08-08T05:12:41;98852.03;;;12.95;100.00
1616;BME280;801;47.982;7.810;2023-08-08T05:15:18;98858.78;;;12.98;100.00
1616;BME280;801;47.982;7.810;2023-08-08T05:18:00;98851.50;;;12.93;100.00
1616;BME280;801;47.982;7.810;2023-08-08T05:20:29;98843.94;;;12.85;100.00
1616;BME280;801;47.982;7.810;2023-08-08T05:23:11;98843.63;;;12.81;100.00
1616;BME280;801;47.982;7.810;2023-08-08T05:25:38;98838.78;;;12.68;100.00
1616;BME280;801;47.982;7.810;2023-08-08T05:28:07;98836.13;;;12.88;100.00
1616;BME280;801;47.982;7.810;2023-08-08T05:30:39;98833.16;;;13.11;100.00
1616;BME280;801;47.982;7.810;2023-08-08T05:33:11;98823.44;;;13.09;100.00
1616;BME280;801;47.982;7.810;2023-08-08T05:35:37;98831.53;;;13.04;100.00
1616;BME280;801;47.982;7.810;2023-08-08T05:38:04;98833.69;;;13.02;100.00
1616;BME280;801;47.982;7.810;2023-08-08T05:40:31;98835.84;;;13.11;100.00
1616;BME280;801;47.982;7.810;2023-08-08T05:43:00;98839.06;;;13.23;100.00
1616;BME280;801;47.982;7.810;2023-08-08T05:45:26;98843.69;;;13.38;100.00
1616;BME280;801;47.982;7.810;2023-08-08T05:47:53;98841.50;;;13.35;100.00
1616;BME280;801;47.982;7.810;2023-08-08T05:50:21;98842.84;;;13.37;100.00
1616;BME280;801;47.982;7.810;2023-08-08T05:52:48;98838.28;;;13.38;100.00
1616;BME280;801;47.982;7.810;2023-08-08T05:55:14;98842.84;;;13.47;100.00
1616;BME280;801;47.982;7.810;2023-08-08T05:57:41;98848.75;;;13.60;100.00
1616;BME280;801;47.982;7.810;2023-08-08T06:00:09;98844.41;;;13.74;100.00
1616;BME280;801;47.982;7.810;2023-08-08T06:02:36;98843.03;;;13.77;100.00
1616;BME280;801;47.982;7.810;2023-08-08T06:05:03;98849.22;;;13.87;100.00
1616;BME280;801;47.982;7.810;2023-08-08T06:07:31;98840.56;;;13.90;100.00
1616;BME280;801;47.982;7.810;2023-08-08T06:09:58;98841.09;;;13.93;100.00
1616;BME280;801;47.982;7.810;2023-08-08T06:12:24;98839.44;;;14.02;100.00
1616;BME280;801;47.982;7.810;2023-08-08T06:14:51;98835.88;;;14.06;100.00
1616;BME280;801;47.982;7.810;2023-08-08T06:17:17;98835.31;;;14.15;100.00
1616;BME280;801;47.982;7.810;2023-08-08T06:19:44;98833.91;;;14.27;100.00
1616;BME280;801;47.982;7.810;2023-08-08T06:22:11;98830.91;;;14.34;100.00
1616;BME280;801;47.982;7.810;2023-08-08T06:24:39;98817.88;;;14.41;100.00
1616;BME280;801;47.982;7.810;2023-08-08T06:27:06;98830.53;;;14.51;100.00
1616;BME280;801;47.982;7.810;2023-08-08T06:29:33;98834.31;;;14.60;100.00
1616;BME280;801;47.982;7.810;2023-08-08T06:31:59;98824.50;;;14.64;100.00
1616;BME280;801;47.982;7.810;2023-08-08T06:34:26;98833.16;;;14.71;100.00
1616;BME280;801;47.982;7.810;2023-08-08T06:36:53;98827.97;;;14.75;100.00
1616;BME280;801;47.982;7.810;2023-08-08T06:39:19;98826.03;;;14.81;100.00
1616;BME280;801;47.982;7.810;2023-08-08T06:41:48;98826.53;;;14.88;100.00
1616;BME280;801;47.982;7.810;2023-08-08T06:44:15;98833.13;;;15.06;100.00
1616;BME280;801;47.982;7.810;2023-08-08T06:46:42;98831.91;;;15.22;100.00
1616;BME280;801;47.982;7.810;2023-08-08T06:49:08;98834.53;;;15.32;100.00
1616;BME280;801;47.982;7.810;2023-08-08T06:51:35;98841.19;;;15.45;100.00
1616;BME280;801;47.982;7.810;2023-08-08T06:54:04;98834.38;;;15.48;100.00
1616;BME280;801;47.982;7.810;2023-08-08T06:56:38;98842.16;;;15.54;100.00
1616;BME280;801;47.982;7.810;2023-08-08T06:59:06;98843.41;;;15.67;100.00
1616;BME280;801;47.982;7.810;2023-08-08T07:01:33;98831.59;;;15.82;100.00
1616;BME280;801;47.982;7.810;2023-08-08T07:04:00;98833.16;;;15.88;100.00
1616;BME280;801;47.982;7.810;2023-08-08T07:06:26;98838.59;;;16.07;100.00
1616;BME280;801;47.982;7.810;2023-08-08T07:08:53;98838.25;;;16.14;100.00
1616;BME280;801;47.982;7.810;2023-08-08T07:11:19;98845.41;;;16.05;100.00
1616;BME280;801;47.982;7.810;2023-08-08T07:13:47;98841.19;;;16.17;100.00
1616;BME280;801;47.982;7.810;2023-08-08T07:16:15;98844.59;;;16.28;100.00
1616;BME280;801;47.982;7.810;2023-08-08T07:18:42;98836.38;;;16.33;100.00
1616;BME280;801;47.982;7.810;2023-08-08T07:21:08;98845.03;;;16.35;100.00
1616;BME280;801;47.982;7.810;2023-08-08T07:23:35;98837.56;;;16.46;100.00
1616;BME280;801;47.982;7.810;2023-08-08T07:26:02;98833.44;;;16.49;100.00
1616;BME280;801;47.982;7.810;2023-08-08T07:28:28;98830.44;;;16.50;100.00
1616;BME280;801;47.982;7.810;2023-08-08T07:30:55;98828.03;;;16.49;100.00
1616;BME280;801;47.982;7.810;2023-08-08T07:33:23;98821.19;;;16.51;100.00
1616;BME280;801;47.982;7.810;2023-08-08T07:35:50;98819.97;;;16.44;100.00
1616;BME280;801;47.982;7.810;2023-08-08T07:38:16;98820.41;;;16.51;100.00
1616;BME280;801;47.982;7.810;2023-08-08T07:40:42;98826.34;;;16.53;100.00
1616;BME280;801;47.982;7.810;2023-08-08T07:43:11;98825.69;;;16.61;100.00
1616;BME280;801;47.982;7.810;2023-08-08T07:45:37;98833.22;;;16.64;100.00
1616;BME280;801;47.982;7.810;2023-08-08T07:48:04;98826.78;;;16.79;100.00
1616;BME280;801;47.982;7.810;2023-08-08T07:50:32;98840.06;;;16.80;100.00
1616;BME280;801;47.982;7.810;2023-08-08T07:52:59;98827.81;;;16.83;100.00
1616;BME280;801;47.982;7.810;2023-08-08T07:55:25;98831.25;;;16.89;100.00
1616;BME280;801;47.982;7.810;2023-08-08T07:57:52;98830.13;;;17.09;100.00
1616;BME280;801;47.982;7.810;2023-08-08T08:00:19;98839.84;;;17.10;100.00
1616;BME280;801;47.982;7.810;2023-08-08T08:02:47;98832.53;;;17.10;100.00
1616;BME280;801;47.982;7.810;2023-08-08T08:05:13;98837.78;;;17.20;100.00
1616;BME280;801;47.982;7.810;2023-08-08T08:07:41;98820.81;;;17.29;100.00
1616;BME280;801;47.982;7.810;2023-08-08T08:10:09;98829.28;;;17.41;100.00
1616;BME280;801;47.982;7.810;2023-08-08T08:12:39;98822.47;;;17.57;100.00
1616;BME280;801;47.982;7.810;2023-08-08T08:15:07;98822.88;;;17.64;100.00
1616;BME280;801;47.982;7.810;2023-08-08T08:17:34;98817.53;;;17.73;100.00
1616;BME280;801;47.982;7.810;2023-08-08T08:20:00;98814.63;;;17.70;100.00
1616;BME280;801;47.982;7.810;2023-08-08T08:22:30;98811.50;;;17.90;100.00
1616;BME280;801;47.982;7.810;2023-08-08T08:24:58;98822.28;;;18.09;100.00
1616;BME280;801;47.982;7.810;2023-08-08T08:27:25;98810.66;;;18.31;100.00
1616;BME280;801;47.982;7.810;2023-08-08T08:29:51;98823.72;;;18.43;100.00
1616;BME280;801;47.982;7.810;2023-08-08T08:32:18;98810.31;;;18.46;100.00
1616;BME280;801;47.982;7.810;2023-08-08T08:34:45;98813.66;;;18.66;100.00
1616;BME280;801;47.982;7.810;2023-08-08T08:37:11;98818.81;;;18.67;100.00
1616;BME280;801;47.982;7.810;2023-08-08T08:39:38;98818.00;;;18.81;100.00
1616;BME280;801;47.982;7.810;2023-08-08T08:42:06;98808.47;;;18.92;100.00
1616;BME280;801;47.982;7.810;2023-08-08T08:44:36;98813.03;;;19.05;100.00
1616;BME280;801;47.982;7.810;2023-08-08T08:47:07;98812.50;;;19.26;96.42
1616;BME280;801;47.982;7.810;2023-08-08T08:49:38;98814.94;;;19.27;95.38
1616;BME280;801;47.982;7.810;2023-08-08T08:52:04;98814.19;;;19.36;93.54
1616;BME280;801;47.982;7.810;2023-08-08T08:54:31;98812.47;;;19.48;90.52
1616;BME280;801;47.982;7.810;2023-08-08T08:56:58;98810.56;;;19.58;87.87
1616;BME280;801;47.982;7.810;2023-08-08T08:59:26;98816.97;;;19.53;87.46
1616;BME280;801;47.982;7.810;2023-08-08T09:01:53;98811.81;;;19.74;88.99
1616;BME280;801;47.982;7.810;2023-08-08T09:04:20;98806.97;;;19.71;89.78
1616;BME280;801;47.982;7.810;2023-08-08T09:06:48;98813.16;;;19.94;90.68
1616;BME280;801;47.982;7.810;2023-08-08T09:09:15;98814.56;;;19.83;85.11
1616;BME280;801;47.982;7.810;2023-08-08T09:11:43;98812.47;;;19.88;84.36
1616;BME280;801;47.982;7.810;2023-08-08T09:14:17;98820.03;;;20.00;83.80
1616;BME280;801;47.982;7.810;2023-08-08T09:16:46;98816.84;;;20.07;86.86
1616;BME280;801;47.982;7.810;2023-08-08T09:19:13;98815.56;;;20.04;85.04
1616;BME280;801;47.982;7.810;2023-08-08T09:21:40;98815.31;;;20.23;84.59
1616;BME280;801;47.982;7.810;2023-08-08T09:24:07;98810.00;;;20.36;84.81
1616;BME280;801;47.982;7.810;2023-08-08T09:26:33;98808.91;;;20.45;84.22
1616;BME280;801;47.982;7.810;2023-08-08T09:29:01;98814.81;;;20.30;82.25
1616;BME280;801;47.982;7.810;2023-08-08T09:31:28;98814.34;;;20.28;82.95
1616;BME280;801;47.982;7.810;2023-08-08T09:33:57;98809.53;;;20.42;82.16
1616;BME280;801;47.982;7.810;2023-08-08T09:36:23;98804.25;;;20.46;80.63
1616;BME280;801;47.982;7.810;2023-08-08T09:38:51;98810.34;;;20.34;80.52
1616;BME280;801;47.982;7.810;2023-08-08T09:41:18;98800.91;;;20.58;81.41
1616;BME280;801;47.982;7.810;2023-08-08T09:43:45;98803.31;;;20.59;81.54
1616;BME280;801;47.982;7.810;2023-08-08T09:46:12;98812.78;;;20.62;77.58
1616;BME280;801;47.982;7.810;2023-08-08T09:48:40;98792.53;;;20.63;78.40
1616;BME280;801;47.982;7.810;2023-08-08T09:51:08;98799.13;;;20.88;74.57
1616;BME280;801;47.982;7.810;2023-08-08T09:53:35;98785.47;;;20.97;75.60
1616;BME280;801;47.982;7.810;2023-08-08T09:56:03;98789.97;;;20.92;75.00
1616;BME280;801;47.982;7.810;2023-08-08T09:58:30;98800.22;;;20.96;72.06
1616;BME280;801;47.982;7.810;2023-08-08T10:00:56;98792.88;;;21.43;72.72
1616;BME280;801;47.982;7.810;2023-08-08T10:03:24;98790.19;;;21.34;62.91
1616;BME280;801;47.982;7.810;2023-08-08T10:05:51;98791.75;;;21.53;64.68
1616;BME280;801;47.982;7.810;2023-08-08T10:08:20;98786.56;;;21.60;65.11
1616;BME280;801;47.982;7.810;2023-08-08T10:10:48;98786.16;;;21.32;66.99
1616;BME280;801;47.982;7.810;2023-08-08T10:13:19;98778.94;;;21.27;66.23
1616;BME280;801;47.982;7.810;2023-08-08T10:15:46;98767.44;;;21.04;62.41
1616;BME280;801;47.982;7.810;2023-08-08T10:18:13;98766.94;;;21.58;65.85
1616;BME280;801;47.982;7.810;2023-08-08T10:20:42;98774.91;;;21.25;66.60
1616;BME280;801;47.982;7.810;2023-08-08T10:23:09;98775.53;;;21.48;62.72
1616;BME280;801;47.982;7.810;2023-08-08T10:25:43;98781.56;;;21.62;63.18
1616;BME280;801;47.982;7.810;2023-08-08T10:28:12;98788.06;;;21.79;63.69
1616;BME280;801;47.982;7.810;2023-08-08T10:30:44;98767.53;;;21.72;61.92
1616;BME280;801;47.982;7.810;2023-08-08T10:33:17;98780.44;;;21.93;63.14
1616;BME280;801;47.982;7.810;2023-08-08T10:36:05;98777.09;;;21.87;61.53
1616;BME280;801;47.982;7.810;2023-08-08T10:38:42;98777.78;;;22.05;58.24
1616;BME280;801;47.982;7.810;2023-08-08T10:41:12;98772.63;;;22.33;62.17
1616;BME280;801;47.982;7.810;2023-08-08T10:43:48;98768.44;;;22.36;59.68
1616;BME280;801;47.982;7.810;2023-08-08T10:46:23;98771.16;;;22.36;56.78
1616;BME280;801;47.982;7.810;2023-08-08T10:48:51;98767.94;;;21.83;57.55
1616;BME280;801;47.982;7.810;2023-08-08T10:51:18;98756.09;;;22.00;58.29
1616;BME280;801;47.982;7.810;2023-08-08T10:53:45;98765.88;;;22.52;57.35
1616;BME280;801;47.982;7.810;2023-08-08T10:56:13;98766.50;;;23.36;57.85
1616;BME280;801;47.982;7.810;2023-08-08T10:58:42;98772.44;;;23.51;55.73
1616;BME280;801;47.982;7.810;2023-08-08T11:01:13;98768.75;;;23.10;53.56
1616;BME280;801;47.982;7.810;2023-08-08T11:03:42;98764.16;;;22.80;56.44
1616;BME280;801;47.982;7.810;2023-08-08T11:06:10;98761.47;;;22.59;57.76
1616;BME280;801;47.982;7.810;2023-08-08T11:08:37;98766.94;;;22.17;59.93
1616;BME280;801;47.982;7.810;2023-08-08T11:11:04;98754.09;;;22.09;61.72
1616;BME280;801;47.982;7.810;2023-08-08T11:13:33;98750.94;;;22.49;57.85
1616;BME280;801;47.982;7.810;2023-08-08T11:15:59;98759.69;;;22.43;58.28
1616;BME280;801;47.982;7.810;2023-08-08T11:18:27;98757.00;;;22.88;57.49
1616;BME280;801;47.982;7.810;2023-08-08T11:20:53;98753.66;;;23.04;56.29
1616;BME280;801;47.982;7.810;2023-08-08T11:23:20;98746.41;;;22.87;56.19
1616;BME280;801;47.982;7.810;2023-08-08T11:25:47;98747.97;;;23.09;57.97
1616;BME280;801;47.982;7.810;2023-08-08T11:28:15;98744.91;;;22.56;56.35
1616;BME280;801;47.982;7.810;2023-08-08T11:30:45;98749.69;;;22.80;55.92
1616;BME280;801;47.982;7.810;2023-08-08T11:33:13;98750.31;;;22.65;54.26
1616;BME280;801;47.982;7.810;2023-08-08T11:35:43;98742.13;;;22.77;57.78
1616;BME280;801;47.982;7.810;2023-08-08T11:38:11;98744.13;;;22.55;58.26
1616;BME280;801;47.982;7.810;2023-08-08T11:40:39;98740.75;;;22.71;59.44
1616;BME280;801;47.982;7.810;2023-08-08T11:43:06;98742.09;;;22.65;59.45
1616;BME280;801;47.982;7.810;2023-08-08T11:45:32;98741.19;;;23.06;59.48
1616;BME280;801;47.982;7.810;2023-08-08T11:48:02;98747.44;;;22.61;54.70
1616;BME280;801;47.982;7.810;2023-08-08T11:50:30;98746.31;;;22.95;54.72
1616;BME280;801;47.982;7.810;2023-08-08T11:52:57;98737.72;;;22.85;54.94
1616;BME280;801;47.982;7.810;2023-08-08T11:55:27;98734.19;;;22.84;55.94
1616;BME280;801;47.982;7.810;2023-08-08T11:57:54;98737.47;;;22.90;54.85
1616;BME280;801;47.982;7.810;2023-08-08T12:00:26;98737.34;;;22.86;55.01
1616;BME280;801;47.982;7.810;2023-08-08T12:02:53;98733.97;;;22.68;54.21
1616;BME280;801;47.982;7.810;2023-08-08T12:05:21;98734.19;;;22.63;53.97
1616;BME280;801;47.982;7.810;2023-08-08T12:07:48;98739.84;;;22.46;54.75
1616;BME280;801;47.982;7.810;2023-08-08T12:10:16;98734.78;;;22.35;55.12
1616;BME280;801;47.982;7.810;2023-08-08T12:12:43;98732.25;;;22.64;56.57
1616;BME280;801;47.982;7.810;2023-08-08T12:15:12;98734.50;;;22.83;56.80
1616;BME280;801;47.982;7.810;2023-08-08T12:17:39;98733.94;;;22.89;54.52
1616;BME280;801;47.982;7.810;2023-08-08T12:20:08;98736.41;;;22.70;54.91
1616;BME280;801;47.982;7.810;2023-08-08T12:22:37;98727.97;;;22.75;53.58
1616;BME280;801;47.982;7.810;2023-08-08T12:25:05;98731.38;;;22.72;56.37
1616;BME280;801;47.982;7.810;2023-08-08T12:27:32;98717.56;;;23.02;55.81
1616;BME280;801;47.982;7.810;2023-08-08T12:29:58;98717.09;;;22.99;56.66
1616;BME280;801;47.982;7.810;2023-08-08T12:32:26;98703.03;;;22.55;55.99
1616;BME280;801;47.982;7.810;2023-08-08T12:34:54;98700.06;;;22.48;57.04
1616;BME280;801;47.982;7.810;2023-08-08T12:37:21;98712.84;;;22.56;57.26
1616;BME280;801;47.982;7.810;2023-08-08T12:39:50;98719.16;;;22.36;56.11
1616;BME280;801;47.982;7.810;2023-08-08T12:42:17;98718.31;;;22.14;58.48
1616;BME280;801;47.982;7.810;2023-08-08T12:44:44;98716.47;;;22.27;57.63
1616;BME280;801;47.982;7.810;2023-08-08T12:47:12;98720.16;;;22.10;60.61
1616;BME280;801;47.982;7.810;2023-08-08T12:49:38;98717.19;;;22.15;60.57
1616;BME280;801;47.982;7.810;2023-08-08T12:52:05;98713.66;;;22.15;63.20
1616;BME280;801;47.982;7.810;2023-08-08T12:54:32;98723.84;;;22.35;63.60
1616;BME280;801;47.982;7.810;2023-08-08T12:57:00;98711.00;;;22.48;63.94
1616;BME280;801;47.982;7.810;2023-08-08T12:59:26;98715.13;;;22.54;62.06
1616;BME280;801;47.982;7.810;2023-08-08T13:01:53;98709.63;;;22.12;63.71
1616;BME280;801;47.982;7.810;2023-08-08T13:04:20;98722.66;;;22.15;63.59
1616;BME280;801;47.982;7.810;2023-08-08T13:06:47;98711.31;;;21.84;63.88
1616;BME280;801;47.982;7.810;2023-08-08T13:09:13;98708.06;;;21.90;64.05
1616;BME280;801;47.982;7.810;2023-08-08T13:11:40;98706.16;;;21.82;63.58
1616;BME280;801;47.982;7.810;2023-08-08T13:14:08;98701.38;;;22.00;63.39
1616;BME280;801;47.982;7.810;2023-08-08T13:16:35;98701.91;;;22.14;63.78
1616;BME280;801;47.982;7.810;2023-08-08T13:19:02;98699.59;;;22.25;63.84
1616;BME280;801;47.982;7.810;2023-08-08T13:21:29;98700.09;;;22.18;62.38
1616;BME280;801;47.982;7.810;2023-08-08T13:23:55;98698.44;;;22.05;62.65
1616;BME280;801;47.982;7.810;2023-08-08T13:26:22;98702.22;;;22.22;62.20
1616;BME280;801;47.982;7.810;2023-08-08T13:28:49;98695.09;;;22.21;61.58
1616;BME280;801;47.982;7.810;2023-08-08T13:31:17;98695.97;;;22.12;61.70
1616;BME280;801;47.982;7.810;2023-08-08T13:33:44;98704.44;;;21.98;62.86
1616;BME280;801;47.982;7.810;2023-08-08T13:36:10;98705.59;;;21.97;63.94
1616;BME280;801;47.982;7.810;2023-08-08T13:38:37;98695.69;;;21.84;65.78
1616;BME280;801;47.982;7.810;2023-08-08T13:41:03;98702.59;;;21.90;66.10
1616;BME280;801;47.982;7.810;2023-08-08T13:43:30;98695.22;;;22.03;64.95
1616;BME280;801;47.982;7.810;2023-08-08T13:45:57;98701.75;;;21.90;66.29
1616;BME280;801;47.982;7.810;2023-08-08T13:48:25;98699.69;;;21.87;66.36
1616;BME280;801;47.982;7.810;2023-08-08T13:50:52;98701.97;;;21.85;68.10
1616;BME280;801;47.982;7.810;2023-08-08T13:53:19;98703.97;;;21.96;68.37
1616;BME280;801;47.982;7.810;2023-08-08T13:55:45;98703.97;;;21.96;69.15
1616;BME280;801;47.982;7.810;2023-08-08T13:58:12;98701.91;;;21.72;68.60
1616;BME280;801;47.982;7.810;2023-08-08T14:00:39;98694.53;;;21.64;68.55
1616;BME280;801;47.982;7.810;2023-08-08T14:03:05;98695.47;;;21.68;70.60
1616;BME280;801;47.982;7.810;2023-08-08T14:05:33;98701.53;;;21.74;70.06
1616;BME280;801;47.982;7.810;2023-08-08T14:08:00;98700.81;;;21.65;72.12
1616;BME280;801;47.982;7.810;2023-08-08T14:10:26;98692.91;;;21.63;70.96
1616;BME280;801;47.982;7.810;2023-08-08T14:12:53;98692.56;;;21.73;71.51
1616;BME280;801;47.982;7.810;2023-08-08T14:15:20;98688.41;;;21.67;69.92
1616;BME280;801;47.982;7.810;2023-08-08T14:17:46;98689.81;;;21.73;71.12
1616;BME280;801;47.982;7.810;2023-08-08T14:20:13;98688.75;;;21.87;69.06
1616;BME280;801;47.982;7.810;2023-08-08T14:22:44;98684.97;;;22.00;68.69
1616;BME280;801;47.982;7.810;2023-08-08T14:25:10;98683.16;;;22.04;67.51
1616;BME280;801;47.982;7.810;2023-08-08T14:27:37;98679.16;;;22.23;67.80
1616;BME280;801;47.982;7.810;2023-08-08T14:30:04;98675.75;;;22.26;68.88